createdAt,value
2018-03-29T00:01:31.572Z,1.97
2018-03-29T00:03:59.033Z,2.23
2018-03-29T00:06:26.496Z,3.10
2018-03-29T00:08:53.964Z,2.80
2018-03-29T00:11:21.434Z,3.80
2018-03-29T00:13:48.916Z,1.90
2018-03-29T00:16:17.146Z,2.00
2018-03-29T00:18:44.617Z,2.00
2018-03-29T00:21:12.080Z,2.03
2018-03-29T00:23:39.562Z,3.40
2018-03-29T00:26:07.789Z,3.10
2018-03-29T00:28:35.260Z,2.00
2018-03-29T00:31:02.719Z,6.53
2018-03-29T00:33:30.192Z,3.07
2018-03-29T00:35:57.653Z,2.50
2018-03-29T00:38:25.124Z,2.43
2018-03-29T00:40:53.364Z,1.90
2018-03-29T00:43:20.840Z,4.13
2018-03-29T00:45:48.294Z,3.13
2018-03-29T00:48:15.764Z,3.00
2018-03-29T00:50:43.222Z,2.57
2018-03-29T00:53:22.525Z,2.83
2018-03-29T00:55:49.981Z,2.77
2018-03-29T00:58:17.450Z,3.30
2018-03-29T01:00:44.924Z,2.50
2018-03-29T01:03:12.808Z,3.30
2018-03-29T01:05:41.059Z,4.30
2018-03-29T01:08:08.525Z,5.87
2018-03-29T01:10:36.001Z,2.63
2018-03-29T01:13:04.230Z,4.00
2018-03-29T01:15:31.701Z,3.60
2018-03-29T01:17:59.160Z,4.40
2018-03-29T01:20:26.643Z,2.70
2018-03-29T01:22:54.909Z,3.93
2018-03-29T01:25:22.381Z,3.10
2018-03-29T01:27:50.607Z,3.77
2018-03-29T01:30:18.070Z,2.80
2018-03-29T01:32:45.525Z,3.60
2018-03-29T01:35:12.988Z,5.63
2018-03-29T01:37:40.445Z,3.60
2018-03-29T01:40:07.915Z,4.00
2018-03-29T01:42:35.374Z,2.60
2018-03-29T01:45:02.846Z,3.20
2018-03-29T01:47:31.088Z,5.60
2018-03-29T01:49:58.570Z,4.00
2018-03-29T01:52:26.034Z,2.90
2018-03-29T01:54:53.502Z,4.17
2018-03-29T01:57:21.729Z,2.73
2018-03-29T01:59:49.202Z,3.43
2018-03-29T02:02:16.680Z,3.20
2018-03-29T02:04:44.139Z,3.07
2018-03-29T02:07:11.610Z,4.27
2018-03-29T02:09:39.844Z,3.50
2018-03-29T02:12:07.301Z,2.67
2018-03-29T02:14:35.523Z,2.87
2018-03-29T02:17:03.768Z,6.30
2018-03-29T02:19:31.222Z,4.43
2018-03-29T02:21:58.697Z,7.07
2018-03-29T02:24:26.163Z,8.00
2018-03-29T02:26:53.671Z,7.87
2018-03-29T02:29:21.141Z,7.00
2018-03-29T02:31:48.622Z,8.60
2018-03-29T02:34:16.083Z,8.63
2018-03-29T02:36:43.562Z,11.07
2018-03-29T02:39:11.793Z,8.47
2018-03-29T02:41:39.264Z,11.10
2018-03-29T02:46:40.626Z,9.80
2018-03-29T02:49:08.089Z,9.93
2018-03-29T02:51:35.557Z,9.20
2018-03-29T02:54:03.016Z,7.80
2018-03-29T02:56:30.502Z,6.90
2018-03-29T02:58:58.728Z,7.90
2018-03-29T03:01:26.193Z,7.77
2018-03-29T03:03:53.665Z,7.07
2018-03-29T03:06:21.139Z,6.17
2018-03-29T03:08:49.367Z,8.33
2018-03-29T03:11:16.845Z,7.67
2018-03-29T03:13:44.318Z,6.93
2018-03-29T03:16:11.781Z,8.13
2018-03-29T03:18:40.010Z,9.97
2018-03-29T03:21:07.481Z,11.03
2018-03-29T03:23:34.958Z,10.87
2018-03-29T03:26:02.439Z,10.80
2018-03-29T03:28:30.661Z,12.37
2018-03-29T03:30:58.135Z,12.70
2018-03-29T03:33:25.588Z,14.03
2018-03-29T03:35:53.058Z,14.37
2018-03-29T03:38:20.515Z,13.17
2018-03-29T03:40:48.005Z,15.40
2018-03-29T03:43:16.241Z,12.63
2018-03-29T03:45:43.708Z,13.33
2018-03-29T03:48:11.176Z,9.83
2018-03-29T03:50:38.638Z,11.60
2018-03-29T03:53:06.110Z,9.97
2018-03-29T03:55:34.336Z,10.70
2018-03-29T03:58:01.817Z,11.37
2018-03-29T04:00:29.282Z,10.17
2018-03-29T04:02:56.772Z,9.50
2018-03-29T04:05:24.241Z,14.10
2018-03-29T04:07:51.716Z,11.40
2018-03-29T04:10:19.949Z,13.40
2018-03-29T04:12:48.179Z,9.80
2018-03-29T04:15:15.649Z,10.90
2018-03-29T04:17:43.120Z,11.20
2018-03-29T04:20:10.589Z,11.30
2018-03-29T04:22:38.835Z,10.33
2018-03-29T04:25:06.292Z,15.50
2018-03-29T04:27:33.774Z,14.50
2018-03-29T04:30:01.241Z,11.50
2018-03-29T04:32:29.489Z,14.23
2018-03-29T04:34:57.726Z,12.70
2018-03-29T04:37:25.202Z,12.40
2018-03-29T04:39:53.436Z,13.57
2018-03-29T04:42:20.918Z,17.60
2018-03-29T04:44:48.382Z,15.10
2018-03-29T04:47:15.850Z,16.80
2018-03-29T04:49:43.319Z,14.43
2018-03-29T04:52:10.793Z,16.73
2018-03-29T04:54:38.258Z,14.50
2018-03-29T04:57:05.741Z,14.63
2018-03-29T04:59:33.205Z,14.57
2018-03-29T05:02:04.663Z,13.17
2018-03-29T05:04:32.220Z,15.00
2018-03-29T05:06:59.713Z,13.90
2018-03-29T05:09:27.335Z,17.37
2018-03-29T05:11:54.924Z,12.70
2018-03-29T05:14:22.465Z,13.70
2018-03-29T05:16:49.978Z,13.03
2018-03-29T05:19:18.224Z,15.20
2018-03-29T05:21:45.704Z,15.73
2018-03-29T05:24:13.179Z,13.93
2018-03-29T05:26:41.412Z,15.73
2018-03-29T05:29:08.884Z,21.13
2018-03-29T05:31:36.345Z,17.50
2018-03-29T05:34:03.813Z,20.70
2018-03-29T05:36:31.269Z,18.87
2018-03-29T05:38:58.748Z,17.17
2018-03-29T05:41:26.997Z,19.43
2018-03-29T05:43:54.475Z,18.17
2018-03-29T05:46:23.014Z,16.93
2018-03-29T05:48:50.498Z,17.50
2018-03-29T05:51:18.000Z,19.30
2018-03-29T05:53:45.477Z,21.50
2018-03-29T05:56:12.941Z,18.00
2018-03-29T05:58:40.418Z,20.60
2018-03-29T06:01:07.880Z,19.07
2018-03-29T06:03:35.357Z,34.10
2018-03-29T06:06:02.840Z,22.60
2018-03-29T06:08:30.323Z,19.13
2018-03-29T06:10:57.797Z,17.40
2018-03-29T06:13:25.268Z,16.40
2018-03-29T06:15:58.287Z,18.63
2018-03-29T06:18:32.362Z,20.53
2018-03-29T06:20:59.842Z,19.50
2018-03-29T06:23:27.326Z,19.40
2018-03-29T06:25:55.556Z,22.77
2018-03-29T06:28:23.034Z,32.70
2018-03-29T06:30:50.502Z,31.50
2018-03-29T06:33:18.756Z,22.20
2018-03-29T06:35:46.231Z,21.60
2018-03-29T06:38:14.468Z,18.33
2018-03-29T06:40:41.931Z,16.53
2018-03-29T06:43:09.417Z,19.17
2018-03-29T06:45:36.900Z,17.60
2018-03-29T06:48:05.152Z,19.80
2018-03-29T06:50:32.679Z,16.57
2018-03-29T06:53:00.954Z,17.40
2018-03-29T06:55:28.423Z,17.63
2018-03-29T06:57:55.912Z,15.33
2018-03-29T07:00:24.157Z,15.90
2018-03-29T07:02:51.613Z,16.87
2018-03-29T07:05:19.102Z,14.90
2018-03-29T07:07:46.559Z,15.50
2018-03-29T07:10:14.805Z,16.30
2018-03-29T07:12:42.294Z,17.40
2018-03-29T07:15:10.556Z,15.80
2018-03-29T07:17:38.009Z,14.80
2018-03-29T07:20:05.489Z,15.37
2018-03-29T07:22:33.719Z,13.27
2018-03-29T07:25:01.965Z,14.10
2018-03-29T07:27:29.420Z,13.90
2018-03-29T07:29:56.894Z,14.27
2018-03-29T07:32:24.349Z,12.70
2018-03-29T07:34:51.816Z,11.87
2018-03-29T07:37:19.276Z,11.60
2018-03-29T07:39:46.772Z,12.13
2018-03-29T07:42:14.241Z,12.10
2018-03-29T07:44:42.475Z,12.47
2018-03-29T07:47:09.975Z,8.70
2018-03-29T07:49:37.413Z,9.67
2018-03-29T07:52:04.892Z,11.10
2018-03-29T07:54:33.137Z,12.90
2018-03-29T07:57:01.370Z,9.33
2018-03-29T07:59:28.848Z,15.30
2018-03-29T08:01:56.320Z,12.00
2018-03-29T08:04:23.794Z,9.97
2018-03-29T08:06:51.265Z,9.63
2018-03-29T08:09:18.736Z,9.33
2018-03-29T08:11:47.022Z,15.27
2018-03-29T08:14:15.280Z,9.33
2018-03-29T08:16:42.744Z,8.43
2018-03-29T08:19:10.984Z,9.07
2018-03-29T08:21:38.458Z,8.00
2018-03-29T08:24:05.944Z,9.67
2018-03-29T08:26:34.177Z,7.80
2018-03-29T08:29:01.674Z,9.17
2018-03-29T08:31:29.896Z,8.60
2018-03-29T08:33:57.424Z,8.63
2018-03-29T08:36:24.897Z,13.03
2018-03-29T08:38:52.356Z,7.93
2018-03-29T08:41:19.847Z,6.53
2018-03-29T08:43:47.304Z,7.90
2018-03-29T08:46:14.774Z,6.83
2018-03-29T08:48:42.281Z,7.90
2018-03-29T08:51:09.774Z,16.77
2018-03-29T08:53:37.252Z,8.50
2018-03-29T08:56:04.725Z,8.10
2018-03-29T08:58:33.000Z,14.20
2018-03-29T09:01:01.241Z,9.43
2018-03-29T09:03:28.698Z,8.87
2018-03-29T09:05:56.197Z,10.27
2018-03-29T09:08:24.432Z,8.53
2018-03-29T09:10:51.932Z,11.57
2018-03-29T09:13:20.199Z,9.43
2018-03-29T09:15:48.478Z,9.23
2018-03-29T09:18:16.720Z,11.50
2018-03-29T09:20:44.228Z,11.87
2018-03-29T09:23:11.722Z,12.40
2018-03-29T09:25:39.221Z,9.97
2018-03-29T09:28:06.684Z,9.17
2018-03-29T09:30:34.963Z,10.73
2018-03-29T09:33:02.438Z,13.23
2018-03-29T09:35:30.693Z,10.50
2018-03-29T09:37:58.932Z,7.73
2018-03-29T09:40:26.413Z,10.10
2018-03-29T09:42:53.910Z,11.03
2018-03-29T09:45:21.402Z,9.03
2018-03-29T09:47:48.918Z,13.60
2018-03-29T09:50:17.142Z,9.20
2018-03-29T09:52:44.604Z,8.43
2018-03-29T09:55:12.078Z,8.40
2018-03-29T09:57:39.553Z,9.63
2018-03-29T10:00:07.813Z,8.30
2018-03-29T10:02:35.273Z,7.03
2018-03-29T10:05:11.501Z,7.23
2018-03-29T10:07:39.001Z,6.20
2018-03-29T10:10:06.506Z,10.10
2018-03-29T10:12:33.960Z,5.90
2018-03-29T10:15:01.448Z,4.43
2018-03-29T10:17:28.928Z,5.33
2018-03-29T10:19:56.390Z,7.93
2018-03-29T10:22:23.892Z,5.47
2018-03-29T10:24:51.381Z,5.60
2018-03-29T10:27:18.856Z,5.03
2018-03-29T10:29:46.314Z,6.50
2018-03-29T10:32:13.800Z,14.07
2018-03-29T10:34:42.038Z,5.00
2018-03-29T10:37:09.501Z,3.90
2018-03-29T10:39:36.960Z,4.10
2018-03-29T10:42:04.434Z,6.10
2018-03-29T10:44:31.904Z,4.83
2018-03-29T10:47:00.142Z,4.40
2018-03-29T10:49:27.608Z,4.30
2018-03-29T10:51:55.103Z,5.87
2018-03-29T10:54:22.588Z,4.47
2018-03-29T10:56:50.077Z,4.53
2018-03-29T10:59:17.552Z,3.63
2018-03-29T11:01:45.033Z,3.83
2018-03-29T11:04:13.313Z,4.40
2018-03-29T11:06:40.783Z,6.50
2018-03-29T11:09:08.256Z,4.47
2018-03-29T11:11:35.742Z,3.90
2018-03-29T11:14:03.237Z,4.80
2018-03-29T11:16:31.468Z,3.57
2018-03-29T11:18:58.954Z,5.03
2018-03-29T11:21:26.441Z,4.97
2018-03-29T11:23:53.905Z,3.67
2018-03-29T11:26:21.395Z,6.20
2018-03-29T11:28:49.241Z,4.90
2018-03-29T11:31:16.729Z,4.40
2018-03-29T11:33:44.210Z,2.93
2018-03-29T11:36:11.716Z,3.40
2018-03-29T11:38:39.189Z,3.80
2018-03-29T11:41:06.659Z,4.90
2018-03-29T11:43:34.147Z,4.30
2018-03-29T11:46:02.541Z,4.00
2018-03-29T11:48:30.051Z,3.50
2018-03-29T11:50:57.518Z,4.77
2018-03-29T11:53:25.018Z,4.23
2018-03-29T11:55:52.484Z,4.43
2018-03-29T11:58:19.960Z,3.67
2018-03-29T12:00:47.433Z,4.67
2018-03-29T12:03:14.949Z,3.70
2018-03-29T12:05:42.419Z,5.83
2018-03-29T12:08:09.909Z,5.67
2018-03-29T12:10:37.412Z,6.57
2018-03-29T12:13:05.667Z,3.60
2018-03-29T12:15:33.129Z,5.07
2018-03-29T12:18:00.655Z,7.23
2018-03-29T12:20:28.112Z,3.83
2018-03-29T12:22:55.576Z,4.33
2018-03-29T12:25:23.811Z,5.80
2018-03-29T12:27:51.300Z,4.40
2018-03-29T12:30:18.756Z,7.77
2018-03-29T12:32:46.225Z,4.07
2018-03-29T12:35:13.697Z,6.73
2018-03-29T12:37:41.680Z,6.33
2018-03-29T12:40:09.571Z,6.40
2018-03-29T12:42:37.122Z,4.00
2018-03-29T12:45:05.361Z,5.17
2018-03-29T12:47:32.841Z,4.27
2018-03-29T12:50:00.299Z,5.23
2018-03-29T12:52:27.776Z,5.87
2018-03-29T12:55:07.980Z,4.10
2018-03-29T12:57:47.429Z,5.70
2018-03-29T13:00:14.928Z,6.37
2018-03-29T13:02:43.235Z,4.43
2018-03-29T13:05:10.752Z,7.87
2018-03-29T13:07:38.995Z,4.27
2018-03-29T13:10:07.260Z,4.50
2018-03-29T13:12:34.748Z,6.07
2018-03-29T13:15:02.224Z,4.60
2018-03-29T13:17:30.460Z,6.60
2018-03-29T13:19:57.925Z,5.20
2018-03-29T13:22:25.391Z,5.73
2018-03-29T13:24:52.866Z,4.47
2018-03-29T13:27:21.102Z,4.57
2018-03-29T13:29:48.580Z,4.87
2018-03-29T13:32:16.060Z,4.73
2018-03-29T13:34:44.307Z,7.77
2018-03-29T13:37:11.794Z,4.63
2018-03-29T13:39:40.028Z,5.23
2018-03-29T13:42:07.515Z,5.50
2018-03-29T13:44:34.992Z,5.30
2018-03-29T13:47:03.240Z,4.63
2018-03-29T13:49:30.755Z,4.67
2018-03-29T13:51:58.251Z,4.20
2018-03-29T13:54:25.767Z,4.83
2018-03-29T13:56:53.383Z,4.30
2018-03-29T13:59:20.914Z,3.70
2018-03-29T14:01:49.123Z,5.27
2018-03-29T14:04:16.616Z,4.83
2018-03-29T14:06:44.116Z,6.03
2018-03-29T14:09:11.590Z,3.10
2018-03-29T14:11:39.064Z,2.80
2018-03-29T14:14:07.318Z,4.23
2018-03-29T14:16:34.792Z,4.33
2018-03-29T14:19:02.281Z,3.83
2018-03-29T14:21:29.741Z,3.80
2018-03-29T14:23:57.208Z,3.00
2018-03-29T14:26:24.673Z,4.40
2018-03-29T14:28:52.149Z,4.07
2018-03-29T14:31:19.631Z,5.23
2018-03-29T14:33:47.104Z,3.33
2018-03-29T14:36:15.334Z,3.30
2018-03-29T14:38:42.820Z,3.93
2018-03-29T14:41:10.275Z,4.07
2018-03-29T14:43:37.752Z,4.17
2018-03-29T14:46:06.027Z,4.97
2018-03-29T14:48:34.280Z,3.30
2018-03-29T14:51:01.756Z,3.90
2018-03-29T14:53:29.229Z,4.60
2018-03-29T14:55:57.470Z,6.40
2018-03-29T14:58:25.378Z,4.37
2018-03-29T15:00:53.632Z,2.60
2018-03-29T15:03:21.097Z,10.00
2018-03-29T15:05:49.339Z,31.17
2018-03-29T15:08:16.801Z,8.97
2018-03-29T15:10:44.292Z,5.10
2018-03-29T15:13:12.595Z,4.80
2018-03-29T15:15:40.037Z,4.60
2018-03-29T15:18:08.265Z,3.90
2018-03-29T15:20:35.738Z,4.20
2018-03-29T15:23:03.191Z,4.27
2018-03-29T15:25:30.659Z,3.80
2018-03-29T15:27:58.121Z,8.33
2018-03-29T15:30:25.608Z,8.73
2018-03-29T15:32:53.094Z,5.10
2018-03-29T15:35:20.564Z,4.10
2018-03-29T15:37:48.040Z,7.13
2018-03-29T15:40:15.571Z,2.80
2018-03-29T15:42:43.027Z,3.40
2018-03-29T15:45:10.492Z,7.40
2018-03-29T15:47:37.960Z,4.43
2018-03-29T15:50:05.448Z,3.63
2018-03-29T15:52:32.910Z,3.83
2018-03-29T15:55:01.204Z,4.03
2018-03-29T15:57:28.657Z,4.30
2018-03-29T15:59:56.914Z,3.70
2018-03-29T16:02:25.160Z,5.73
2018-03-29T16:04:52.647Z,6.57
2018-03-29T16:07:20.104Z,5.90
2018-03-29T16:09:47.574Z,4.43
2018-03-29T16:14:50.435Z,3.77
2018-03-29T16:17:17.955Z,4.47
2018-03-29T16:19:45.443Z,4.00
2018-03-29T16:22:12.892Z,3.10
2018-03-29T16:24:40.359Z,3.20
2018-03-29T16:27:07.824Z,3.00
2018-03-29T16:29:35.282Z,3.17
2018-03-29T16:32:02.794Z,3.10
2018-03-29T16:34:31.014Z,3.37
2018-03-29T16:36:58.476Z,4.73
2018-03-29T16:39:25.968Z,4.00
2018-03-29T16:41:54.202Z,4.17
2018-03-29T16:44:21.718Z,5.50
2018-03-29T16:46:49.201Z,5.20
2018-03-29T16:49:16.663Z,3.10
2018-03-29T16:51:44.139Z,3.27
2018-03-29T16:54:11.603Z,5.70
2018-03-29T16:56:39.131Z,4.10
2018-03-29T16:59:06.640Z,4.67
2018-03-29T17:01:34.134Z,6.50
2018-03-29T17:04:01.612Z,5.77
2018-03-29T17:06:29.088Z,5.30
2018-03-29T17:08:56.552Z,6.70
2018-03-29T17:11:24.030Z,5.50
2018-03-29T17:13:51.502Z,4.40
2018-03-29T17:16:19.734Z,4.50
2018-03-29T17:18:47.193Z,3.83
2018-03-29T17:21:14.712Z,3.50
2018-03-29T17:23:42.129Z,4.67
2018-03-29T17:26:09.596Z,4.70
2018-03-29T17:28:37.835Z,3.60
2018-03-29T17:31:05.310Z,4.60
2018-03-29T17:33:32.756Z,5.37
2018-03-29T17:36:00.226Z,5.10
2018-03-29T17:38:28.607Z,4.23
2018-03-29T17:40:56.112Z,4.70
2018-03-29T17:43:23.579Z,5.80
2018-03-29T17:45:51.039Z,8.73
2018-03-29T17:48:18.534Z,4.57
2018-03-29T17:50:46.549Z,5.80
2018-03-29T17:53:14.019Z,3.67
2018-03-29T17:55:41.506Z,5.73
2018-03-29T17:58:08.992Z,7.03
2018-03-29T18:00:36.939Z,5.80
2018-03-29T18:03:04.447Z,6.20
2018-03-29T18:05:31.931Z,11.23
2018-03-29T18:07:59.422Z,6.50
2018-03-29T18:10:26.941Z,8.07
2018-03-29T18:12:55.383Z,5.80
2018-03-29T18:15:22.871Z,10.20
2018-03-29T18:17:50.340Z,7.27
2018-03-29T18:20:17.854Z,5.47
2018-03-29T18:22:46.121Z,5.97
2018-03-29T18:25:13.612Z,5.03
2018-03-29T18:30:15.637Z,6.23
2018-03-29T18:32:43.617Z,6.43
2018-03-29T18:35:11.091Z,5.63
2018-03-29T18:37:38.597Z,7.40
2018-03-29T18:40:06.096Z,5.73
2018-03-29T18:42:34.611Z,5.67
2018-03-29T18:45:02.124Z,4.40
2018-03-29T18:47:29.598Z,4.93
2018-03-29T18:49:57.071Z,3.70
2018-03-29T18:52:24.594Z,4.70
2018-03-29T18:54:52.066Z,4.30
2018-03-29T18:57:19.580Z,6.20
2018-03-29T18:59:47.085Z,5.60
2018-03-29T19:02:14.573Z,6.97
2018-03-29T19:04:42.856Z,5.90
2018-03-29T19:07:11.322Z,5.30
2018-03-29T19:09:38.858Z,7.03
2018-03-29T19:12:06.391Z,5.53
2018-03-29T19:14:33.930Z,5.63
2018-03-29T19:17:01.502Z,6.07
2018-03-29T19:19:29.040Z,6.03
2018-03-29T19:21:56.556Z,5.10
2018-03-29T19:24:24.161Z,4.30
2018-03-29T19:26:51.703Z,4.97
2018-03-29T19:29:20.019Z,4.17
2018-03-29T19:31:47.527Z,3.30
2018-03-29T19:34:15.112Z,4.13
2018-03-29T19:36:43.431Z,4.07
2018-03-29T19:39:11.051Z,2.37
2018-03-29T19:41:38.608Z,1.93
2018-03-29T19:44:06.933Z,2.40
2018-03-29T19:46:34.456Z,3.63
2018-03-29T19:49:01.962Z,5.70
2018-03-29T19:51:29.487Z,5.13
2018-03-29T19:53:57.058Z,3.47
2018-03-29T19:56:24.584Z,3.23
2018-03-29T19:58:52.149Z,6.10
2018-03-29T20:01:19.682Z,4.87
2018-03-29T20:03:47.968Z,5.00
2018-03-29T20:06:16.250Z,4.73
2018-03-29T20:08:43.769Z,7.83
2018-03-29T20:11:11.511Z,6.03
2018-03-29T20:13:40.339Z,7.47
2018-03-29T20:16:07.889Z,9.33
2018-03-29T20:18:35.449Z,10.63
2018-03-29T20:21:02.972Z,7.13
2018-03-29T20:23:30.473Z,8.70
2018-03-29T20:25:57.986Z,7.97
2018-03-29T20:28:25.478Z,7.80
2018-03-29T20:30:52.995Z,7.07
2018-03-29T20:33:20.479Z,7.80
2018-03-29T20:35:48.747Z,6.50
2018-03-29T20:38:16.240Z,6.80
2018-03-29T20:40:43.725Z,6.83
2018-03-29T20:43:11.973Z,5.03
2018-03-29T20:45:39.488Z,4.93
2018-03-29T20:48:07.018Z,6.53
2018-03-29T20:50:35.296Z,8.57
2018-03-29T20:53:03.551Z,4.73
2018-03-29T20:55:31.078Z,6.87
2018-03-29T20:57:58.581Z,5.63
2018-03-29T21:00:26.925Z,5.03
2018-03-29T21:02:54.475Z,6.87
2018-03-29T21:05:22.001Z,6.60
2018-03-29T21:07:49.520Z,6.10
2018-03-29T21:10:17.032Z,3.90
2018-03-29T21:12:44.505Z,5.90
2018-03-29T21:15:12.034Z,6.40
2018-03-29T21:17:39.558Z,6.20
2018-03-29T21:20:07.805Z,9.60
2018-03-29T21:22:35.307Z,7.00
2018-03-29T21:25:03.609Z,6.63
2018-03-29T21:27:31.853Z,8.90
2018-03-29T21:30:00.148Z,8.07
2018-03-29T21:32:28.429Z,6.43
2018-03-29T21:34:56.697Z,5.77
2018-03-29T21:37:24.957Z,4.80
2018-03-29T21:39:53.229Z,6.30
2018-03-29T21:42:20.720Z,5.20
2018-03-29T21:44:48.263Z,2.93
2018-03-29T21:47:16.519Z,4.50
2018-03-29T21:49:44.011Z,4.03
2018-03-29T21:52:11.614Z,7.27
2018-03-29T21:54:39.123Z,11.13
2018-03-29T21:57:06.642Z,9.30
2018-03-29T21:59:34.153Z,6.30
2018-03-29T22:02:01.715Z,5.90
2018-03-29T22:04:29.263Z,3.53
2018-03-29T22:06:56.796Z,4.83
2018-03-29T22:09:24.309Z,5.27
2018-03-29T22:11:51.824Z,6.63
2018-03-29T22:14:20.110Z,8.07
2018-03-29T22:16:48.417Z,4.47
2018-03-29T22:19:15.906Z,7.57
2018-03-29T22:21:43.455Z,8.17
2018-03-29T22:24:10.955Z,7.00
2018-03-29T22:26:39.253Z,5.93
2018-03-29T22:29:06.725Z,10.30
2018-03-29T22:31:34.226Z,6.50
2018-03-29T22:34:01.772Z,9.57
2018-03-29T22:36:29.219Z,5.40
2018-03-29T22:38:56.707Z,7.37
2018-03-29T22:41:24.191Z,7.33
2018-03-29T22:43:52.427Z,4.70
2018-03-29T22:46:19.907Z,6.77
2018-03-29T22:48:47.386Z,7.30
2018-03-29T22:51:15.618Z,10.43
2018-03-29T22:53:43.105Z,9.20
2018-03-29T22:56:11.334Z,4.73
2018-03-29T22:58:38.814Z,4.70
2018-03-29T23:01:06.283Z,5.80
2018-03-29T23:03:33.782Z,6.23
2018-03-29T23:06:01.282Z,5.40
2018-03-29T23:08:28.769Z,5.93
2018-03-29T23:10:57.009Z,4.97
2018-03-29T23:13:24.517Z,5.60
2018-03-29T23:15:52.756Z,5.80
2018-03-29T23:18:20.261Z,6.33
2018-03-29T23:20:47.731Z,4.73
2018-03-29T23:23:15.263Z,5.50
2018-03-29T23:25:42.705Z,3.40
2018-03-29T23:28:10.200Z,5.07
2018-03-29T23:30:37.673Z,5.37
2018-03-29T23:33:05.157Z,5.10
2018-03-29T23:35:32.640Z,7.10
2018-03-29T23:38:00.115Z,8.93
2018-03-29T23:40:28.358Z,2.80
2018-03-29T23:42:55.856Z,6.60
2018-03-29T23:45:23.318Z,4.40
2018-03-29T23:47:50.804Z,6.00
2018-03-29T23:50:18.286Z,5.90
2018-03-29T23:52:45.767Z,4.50
2018-03-29T23:55:14.032Z,6.40
2018-03-29T23:57:41.541Z,5.23
